Map

Track Data

SID SEASON NUMBER BASIN SUBBASIN NAME ISO_TIME NATURE LAT LON WMO_WIND WMO_PRES WMO_AGENCY TRACK_TYPE DIST2LAND LANDFALL IFLAG USA_AGENCY USA_ATCF_ID USA_LAT USA_LON USA_RECORD USA_STATUS USA_WIND USA_PRES USA_SSHS USA_R34_NE USA_R34_SE USA_R34_SW USA_R34_NW USA_R50_NE USA_R50_SE USA_R50_SW USA_R50_NW USA_R64_NE USA_R64_SE USA_R64_SW USA_R64_NW USA_POCI USA_ROCI USA_RMW USA_EYE TOKYO_LAT TOKYO_LON TOKYO_GRADE TOKYO_WIND TOKYO_PRES TOKYO_R50_DIR TOKYO_R50_LONG TOKYO_R50_SHORT TOKYO_R30_DIR TOKYO_R30_LONG TOKYO_R30_SHORT TOKYO_LAND CMA_LAT CMA_LON CMA_CAT CMA_WIND CMA_PRES HKO_LAT HKO_LON HKO_CAT HKO_WIND HKO_PRES NEWDELHI_LAT NEWDELHI_LON NEWDELHI_GRADE NEWDELHI_WIND NEWDELHI_PRES NEWDELHI_CI NEWDELHI_DP NEWDELHI_POCI REUNION_LAT REUNION_LON REUNION_TYPE REUNION_WIND REUNION_PRES REUNION_TNUM REUNION_CI REUNION_RMW REUNION_R34_NE REUNION_R34_SE REUNION_R34_SW REUNION_R34_NW REUNION_R50_NE REUNION_R50_SE REUNION_R50_SW REUNION_R50_NW REUNION_R64_NE REUNION_R64_SE REUNION_R64_SW REUNION_R64_NW BOM_LAT BOM_LON BOM_TYPE BOM_WIND BOM_PRES BOM_TNUM BOM_CI BOM_RMW BOM_R34_NE BOM_R34_SE BOM_R34_SW BOM_R34_NW BOM_R50_NE BOM_R50_SE BOM_R50_SW BOM_R50_NW BOM_R64_NE BOM_R64_SE BOM_R64_SW BOM_R64_NW BOM_ROCI BOM_POCI BOM_EYE BOM_POS_METHOD BOM_PRES_METHOD NADI_LAT NADI_LON NADI_CAT NADI_WIND NADI_PRES WELLINGTON_LAT WELLINGTON_LON WELLINGTON_WIND WELLINGTON_PRES DS824_LAT DS824_LON DS824_STAGE DS824_WIND DS824_PRES TD9636_LAT TD9636_LON TD9636_STAGE TD9636_WIND TD9636_PRES TD9635_LAT TD9635_LON TD9635_WIND TD9635_PRES TD9635_ROCI NEUMANN_LAT NEUMANN_LON NEUMANN_CLASS NEUMANN_WIND NEUMANN_PRES MLC_LAT MLC_LON MLC_CLASS MLC_WIND MLC_PRES USA_GUST BOM_GUST BOM_GUST_PER REUNION_GUST REUNION_GUST_PER USA_SEAHGT USA_SEARAD_NE USA_SEARAD_SE USA_SEARAD_SW USA_SEARAD_NW STORM_SPEED STORM_DIR
1973266N13246 1973 102 EP MM JENNIFER 1973-09-23 00:00:00 TS 13.2000 -113.600 30 hurdat_epa main 1145 1145 O________OO___ hurdat_epa EP101973 13.2000 -113.600 TD 30 -1 13.2000 -113.600 TC 30 13.2000 -113.600 1 30 1 93
1973266N13246 1973 102 EP MM JENNIFER 1973-09-23 03:00:00 TS 13.1967 -113.548 main 1137 1137 P________PP___ EP101973 13.1900 -113.548 TD 30 -1 13.1900 -113.548 TC 30 13.2235 -113.552 1 30 1 84
1973266N13246 1973 102 EP MM JENNIFER 1973-09-23 06:00:00 TS 13.2095 -113.501 30 hurdat_epa main 1137 1137 O________OP___ hurdat_epa EP101973 13.2000 -113.500 TD 30 -1 13.2000 -113.500 TC 30 13.2475 -113.503 1 30 1 60
1973266N13246 1973 102 EP MM JENNIFER 1973-09-23 09:00:00 TS 13.2486 -113.456 main 1137 1121 P________PP___ EP101973 13.2425 -113.458 TD 30 -1 13.2425 -113.458 TC 30 13.2728 -113.452 1 30 1 46
1973266N13246 1973 102 EP MM JENNIFER 1973-09-23 12:00:00 TS 13.3000 -113.400 30 hurdat_epa main 1121 1113 O________OO___ hurdat_epa EP101973 13.3000 -113.400 TD 30 -1 13.3000 -113.400 TC 30 13.3000 -113.400 1 30 2 56
1973266N13246 1973 102 EP MM JENNIFER 1973-09-23 15:00:00 TS 13.3461 -113.309 main 1113 1097 P________PP___ EP101973 13.3500 -113.300 TD 30 -1 13.3500 -113.300 TC 30 13.3306 -113.344 1 30 2 62
1973266N13246 1973 102 EP MM JENNIFER 1973-09-23 18:00:00 TS 13.3940 -113.216 30 hurdat_epa main 1097 1097 O________OP___ hurdat_epa EP101973 13.4000 -113.200 TD 30 -1 13.4000 -113.200 TC 30 13.3699 -113.280 1 30 2 55
1973266N13246 1973 102 EP MM JENNIFER 1973-09-23 21:00:00 TS 13.4388 -113.166 main 1097 1082 P________PP___ EP101973 13.4425 -113.157 TD 30 -1 13.4425 -113.157 TC 30 13.4243 -113.201 1 30 2 46
1973266N13246 1973 102 EP MM JENNIFER 1973-09-24 00:00:00 TS 13.5000 -113.100 30 hurdat_epa main 1082 1066 O________OO___ hurdat_epa EP101973 13.5000 -113.100 TD 30 -1 13.5000 -113.100 TC 30 13.5000 -113.100 1 30 2 52
1973266N13246 1973 102 EP MM JENNIFER 1973-09-24 03:00:00 TS 13.5862 -112.974 main 1066 1043 P________PP___ EP101973 13.5850 -112.965 TD 30 -1 13.5850 -112.965 TC 30 13.5911 -113.008 1 31 3 54
1973266N13246 1973 102 EP MM JENNIFER 1973-09-24 06:00:00 TS 13.7009 -112.818 30 hurdat_epa main 1043 1027 O________OP___ hurdat_epa EP101973 13.7000 -112.800 TD 30 -1 13.7000 -112.800 TC 30 13.7047 -112.890 1 32 4 48
1973266N13246 1973 102 EP MM JENNIFER 1973-09-24 09:00:00 TS 13.8361 -112.689 main 1027 996 P________PP___ EP101973 13.8349 -112.680 TD 30 -1 13.8349 -112.680 TC 30 13.8409 -112.727 1 33 4 46
1973266N13246 1973 102 EP MM JENNIFER 1973-09-24 12:00:00 TS 14.0000 -112.500 30 hurdat_epa main 996 957 O________OO___ hurdat_epa EP101973 14.0000 -112.500 TD 30 -1 14.0000 -112.500 TC 30 14.0000 -112.500 2 35 6 54
1973266N13246 1973 102 EP MM JENNIFER 1973-09-24 15:00:00 TS 14.1865 -112.191 main 957 910 P________PP___ EP101973 14.1925 -112.188 TD 32 -1 14.1925 -112.188 TC 32 14.1622 -112.206 2 35 8 60
1973266N13246 1973 102 EP MM JENNIFER 1973-09-24 18:00:00 TS 14.3895 -111.809 35 hurdat_epa main 910 863 O________OP___ hurdat_epa EP101973 14.4000 -111.800 TS 35 0 14.4000 -111.800 TC 35 14.3475 -111.847 2 35 8 62
1973266N13246 1973 102 EP MM JENNIFER 1973-09-24 21:00:00 TS 14.5797 -111.426 main 863 816 P________PP___ EP101973 14.5849 -111.422 TS 35 0 14.5849 -111.422 TC 35 14.5590 -111.440 2 35 9 62
1973266N13246 1973 102 EP MM JENNIFER 1973-09-25 00:00:00 TS 14.8000 -111.000 35 hurdat_epa main 816 754 O________OO___ hurdat_epa EP101973 14.8000 -111.000 TS 35 0 14.8000 -111.000 TC 35 14.8000 -111.000 1 35 10 60
1973266N13246 1973 102 EP MM JENNIFER 1973-09-25 03:00:00 TS 15.0823 -110.512 main 754 692 P________PP___ EP101973 15.0850 -110.508 TS 35 0 15.0850 -110.508 TC 35 15.0716 -110.530 1 35 11 58
1973266N13246 1973 102 EP MM JENNIFER 1973-09-25 06:00:00 TS 15.3941 -110.007 35 hurdat_epa main 692 638 O________OP___ hurdat_epa EP101973 15.4000 -110.000 TS 35 0 15.4000 -110.000 TC 35 15.3705 -110.035 1 35 11 57
1973266N13246 1973 102 EP MM JENNIFER 1973-09-25 09:00:00 TS 15.6967 -109.538 main 631 577 P________PP___ EP101973 15.6999 -109.535 TS 35 0 15.6999 -109.535 TC 35 15.6841 -109.548 1 35 11 55
1973266N13246 1973 102 EP MM JENNIFER 1973-09-25 12:00:00 TS 16.0000 -109.100 35 hurdat_epa main 577 523 O________OO___ hurdat_epa EP101973 16.0000 -109.100 TS 35 0 16.0000 -109.100 TC 35 16.0000 -109.100 1 35 10 55
1973266N13246 1973 102 EP MM JENNIFER 1973-09-25 15:00:00 TS 16.2870 -108.676 main 523 468 P________PP___ EP101973 16.3000 -108.670 TS 32 -1 16.3000 -108.670 TC 32 16.2348 -108.699 1 33 10 53
1973266N13246 1973 102 EP MM JENNIFER 1973-09-25 18:00:00 TS 16.5760 -108.309 30 hurdat_epa main 468 430 O________OP___ hurdat_epa EP101973 16.6000 -108.300 TD 30 -1 16.6000 -108.300 TC 30 16.4798 -108.344 1 32 8 49
1973266N13246 1973 102 EP MM JENNIFER 1973-09-25 21:00:00 TS 16.8289 -108.018 main 430 384 P________PP___ EP101973 16.8399 -108.012 TD 30 -1 16.8399 -108.012 TC 30 16.7850 -108.043 1 31 8 38
1973266N13246 1973 102 EP MM JENNIFER 1973-09-26 00:00:00 TS 17.2000 -107.800 30 hurdat_epa main 384 322 O________OO___ hurdat_epa EP101973 17.2000 -107.800 TD 30 -1 17.2000 -107.800 TC 30 17.2000 -107.800 1 30 11 21
1973266N13246 1973 102 EP MM JENNIFER 1973-09-26 03:00:00 TS 17.8265 -107.628 main 322 267 P________PP___ EP101973 17.8400 -107.628 TD 30 -1 17.8400 -107.628 TC 30 17.7726 -107.629 1 30 14 12
1973266N13246 1973 102 EP MM JENNIFER 1973-09-26 06:00:00 TS 18.5715 -107.502 30 hurdat_epa main 261 218 O________OP___ hurdat_epa EP101973 18.6000 -107.500 TD 30 -1 18.6000 -107.500 TC 30 18.4573 -107.511 1 30 15 8
1973266N13246 1973 102 EP MM JENNIFER 1973-09-26 09:00:00 TS 19.2706 -107.408 main 213 172 P________PP___ EP101973 19.2850 -107.407 TD 30 -1 19.2850 -107.407 TC 30 19.2133 -107.413 1 30 15 8
1973266N13246 1973 102 EP MM JENNIFER 1973-09-26 12:00:00 TS 20.0000 -107.300 30 hurdat_epa main 172 149 O________OO___ hurdat_epa EP101973 20.0000 -107.300 TD 30 -1 20.0000 -107.300 TC 30 20.0000 -107.300 1 30 16 10
1973266N13246 1973 102 EP MM JENNIFER 1973-09-26 15:00:00 TS 20.7908 -107.121 main 152 141 P________PP___ EP101973 20.7925 -107.115 TD 27 -1 20.7925 -107.115 TC 27 20.7838 -107.146 1 28 16 13
1973266N13246 1973 102 EP MM JENNIFER 1973-09-26 18:00:00 TS 21.5937 -106.908 25 hurdat_epa main 141 91 O________OP___ hurdat_epa EP101973 21.6000 -106.900 TD 25 -1 21.6000 -106.900 TC 25 21.5602 -106.953 1 27 16 13
1973266N13246 1973 102 EP MM JENNIFER 1973-09-26 21:00:00 TS 22.3545 -106.717 main 83 15 P________PP___ EP101973 22.3574 -106.715 TD 25 -1 22.3574 -106.715 TC 25 22.3315 -106.734 1 26 16 14
1973266N13246 1973 102 EP MM JENNIFER 1973-09-27 00:00:00 TS 23.1000 -106.500 25 hurdat_epa main 15 0 O________OO___ hurdat_epa EP101973 23.1000 -106.500 TD 25 -1 23.1000 -106.500 TC 25 23.1000 -106.500 1 25 16 16
1973266N13246 1973 102 EP MM JENNIFER 1973-09-27 03:00:00 TS 23.8574 -106.237 main 0 0 P________P____ EP101973 23.8574 -106.237 TD 25 -1 23.8574 -106.237 TC 25 1 16 20
1973266N13246 1973 102 EP MM JENNIFER 1973-09-27 06:00:00 ET 24.6000 -105.900 25 hurdat_epa main 0 0 O________O____ hurdat_epa EP101973 24.6000 -105.900 ET 25 -4 24.6000 -105.900 25 1 16 25
1973266N13246 1973 102 EP MM JENNIFER 1973-09-27 09:00:00 ET 25.3104 -105.476 main 0 0 P________P____ EP101973 25.3104 -105.476 ET 25 -4 25.3104 -105.476 25 1 16 30
1973266N13246 1973 102 EP MM JENNIFER 1973-09-27 12:00:00 ET 26.0000 -105.000 25 hurdat_epa main 0 O________O____ hurdat_epa EP101973 26.0000 -105.000 ET 25 -4 26.0000 -105.000 25 16 32

About IBTrACS Database

This database is a web-friendly format of International Best Track Archive for Climate Stewardship (IBTrACS), a global best track data archive curated by NOAA dating back to 1842.

Updated: 2021-11-26